createdAt,value
2019-05-12T00:00:58.505Z,17.05
2019-05-12T00:03:27.695Z,13.72
2019-05-12T00:05:57.803Z,14.10
2019-05-12T00:08:27.576Z,12.07
2019-05-12T00:10:55.105Z,15.15
2019-05-12T00:13:23.091Z,11.65
2019-05-12T00:15:50.932Z,13.45
2019-05-12T00:18:18.812Z,16.60
2019-05-12T00:20:47.660Z,13.65
2019-05-12T00:23:25.052Z,12.70
2019-05-12T00:25:45.319Z,14.83
2019-05-12T00:28:13.247Z,16.77
2019-05-12T00:30:44.838Z,15.88
2019-05-12T00:33:12.709Z,16.90
2019-05-12T00:35:40.680Z,16.25
2019-05-12T00:38:09.352Z,17.45
2019-05-12T00:40:39.237Z,18.30
2019-05-12T00:43:08.721Z,13.95
2019-05-12T00:45:38.570Z,13.98
2019-05-12T00:48:08.750Z,14.30
2019-05-12T00:50:37.984Z,16.27
2019-05-12T00:53:05.441Z,15.70
2019-05-12T00:55:33.324Z,12.85
2019-05-12T00:58:01.320Z,13.28
2019-05-12T01:00:29.783Z,14.03
2019-05-12T01:02:58.283Z,12.28
2019-05-12T01:05:26.395Z,12.40
2019-05-12T01:07:54.359Z,13.18
2019-05-12T01:10:22.354Z,12.37
2019-05-12T01:12:50.226Z,13.50
2019-05-12T01:15:18.097Z,13.83
2019-05-12T01:17:47.745Z,10.20
2019-05-12T01:20:17.778Z,7.60
2019-05-12T01:22:45.413Z,7.37
2019-05-12T01:25:13.350Z,7.25
2019-05-12T01:27:41.245Z,11.90
2019-05-12T01:30:09.202Z,11.53
2019-05-12T01:32:38.544Z,9.25
2019-05-12T01:35:08.074Z,12.70
2019-05-12T01:37:38.315Z,10.32
2019-05-12T01:40:08.483Z,10.32
2019-05-12T01:42:38.024Z,11.18
2019-05-12T01:45:05.124Z,10.32
2019-05-12T01:47:33.092Z,9.38
2019-05-12T01:50:00.936Z,11.48
2019-05-12T01:52:28.902Z,12.03
2019-05-12T01:54:58.915Z,11.30
2019-05-12T01:57:28.750Z,12.28
2019-05-12T01:59:58.128Z,12.37
2019-05-12T02:02:28.414Z,21.57
2019-05-12T02:05:08.928Z,13.08
2019-05-12T02:07:53.889Z,18.82
2019-05-12T02:10:21.463Z,12.63
2019-05-12T02:12:49.352Z,16.07
2019-05-12T02:15:18.335Z,13.85
2019-05-12T02:17:48.143Z,13.05
2019-05-12T02:20:17.932Z,13.65
2019-05-12T02:22:47.590Z,15.93
2019-05-12T02:25:15.219Z,13.50
2019-05-12T02:27:43.085Z,14.13
2019-05-12T02:30:10.972Z,17.20
2019-05-12T02:32:48.613Z,14.35
2019-05-12T02:35:08.535Z,17.15
2019-05-12T02:37:36.411Z,12.75
2019-05-12T02:40:04.941Z,14.80
2019-05-12T02:42:34.919Z,12.25
2019-05-12T02:45:05.571Z,16.07
2019-05-12T02:47:34.722Z,11.95
2019-05-12T02:50:05.122Z,10.72
2019-05-12T02:52:34.496Z,11.00
2019-05-12T02:55:05.809Z,13.83
2019-05-12T02:57:34.199Z,9.98
2019-05-12T03:00:00.471Z,12.40
2019-05-12T03:02:28.521Z,16.60
2019-05-12T03:04:56.359Z,14.93
2019-05-12T03:07:25.439Z,17.42
2019-05-12T03:09:54.968Z,10.32
2019-05-12T03:12:25.573Z,11.30
2019-05-12T03:14:54.482Z,10.25
2019-05-12T03:17:25.162Z,9.78
2019-05-12T03:19:55.461Z,8.20
2019-05-12T03:22:24.932Z,8.83
2019-05-12T03:25:06.229Z,11.55
2019-05-12T03:27:21.007Z,9.23
2019-05-12T03:29:48.950Z,9.65
2019-05-12T03:32:18.017Z,8.33
2019-05-12T03:34:47.714Z,11.97
2019-05-12T03:37:17.944Z,9.80
2019-05-12T03:39:45.499Z,12.95
2019-05-12T03:42:14.506Z,9.95
2019-05-12T03:44:44.535Z,9.10
2019-05-12T03:47:14.492Z,11.48
2019-05-12T03:49:41.759Z,10.78
2019-05-12T03:52:09.654Z,10.28
2019-05-12T03:54:37.534Z,8.05
2019-05-12T03:57:05.417Z,9.93
2019-05-12T03:59:34.799Z,8.48
2019-05-12T04:02:04.726Z,7.87
2019-05-12T04:04:34.792Z,7.72
2019-05-12T04:07:05.188Z,7.78
2019-05-12T04:09:34.750Z,7.47
2019-05-12T04:12:01.590Z,8.90
2019-05-12T04:14:29.558Z,10.35
2019-05-12T04:16:57.465Z,12.45
2019-05-12T04:19:25.302Z,11.73
2019-05-12T04:21:54.701Z,11.80
2019-05-12T04:24:24.909Z,7.95
2019-05-12T04:26:55.032Z,8.65
2019-05-12T04:29:25.040Z,8.03
2019-05-12T04:31:54.236Z,10.45
2019-05-12T04:34:21.401Z,9.83
2019-05-12T04:36:49.264Z,10.30
2019-05-12T04:39:17.217Z,11.08
2019-05-12T04:41:45.131Z,10.20
2019-05-12T04:44:15.192Z,9.60
2019-05-12T04:46:45.019Z,8.93
2019-05-12T04:49:15.499Z,10.13
2019-05-12T04:51:44.988Z,12.37
2019-05-12T04:54:14.977Z,8.33
2019-05-12T04:56:40.949Z,16.67
2019-05-12T04:59:08.817Z,9.18
2019-05-12T05:01:36.716Z,16.97
2019-05-12T05:04:05.641Z,10.82
2019-05-12T05:06:34.333Z,10.70
2019-05-12T05:09:04.832Z,10.08
2019-05-12T05:11:34.334Z,8.93
2019-05-12T05:14:03.996Z,10.68
2019-05-12T05:16:31.126Z,12.03
2019-05-12T05:18:59.002Z,10.20
2019-05-12T05:21:26.925Z,8.30
2019-05-12T05:23:54.818Z,12.23
2019-05-12T05:26:27.845Z,12.20
2019-05-12T05:28:54.288Z,15.35
2019-05-12T05:31:24.165Z,12.00
2019-05-12T05:33:53.519Z,12.43
2019-05-12T05:36:21.161Z,10.55
2019-05-12T05:38:51.094Z,13.95
2019-05-12T05:41:18.690Z,11.20
2019-05-12T05:43:48.592Z,9.45
2019-05-12T05:46:16.209Z,10.68
2019-05-12T05:48:44.227Z,13.90
2019-05-12T05:51:13.644Z,11.70
2019-05-12T05:53:44.021Z,9.90
2019-05-12T05:56:11.362Z,8.50
2019-05-12T05:58:40.128Z,9.40
2019-05-12T06:01:08.999Z,12.30
2019-05-12T06:03:36.963Z,14.68
2019-05-12T06:06:10.732Z,12.07
2019-05-12T06:08:34.554Z,14.65
2019-05-12T06:11:04.486Z,14.95
2019-05-12T06:13:34.467Z,9.35
2019-05-12T06:16:04.229Z,9.70
2019-05-12T06:18:33.468Z,12.00
2019-05-12T06:21:03.291Z,9.38
2019-05-12T06:23:35.047Z,6.62
2019-05-12T06:26:00.404Z,14.43
2019-05-12T06:28:31.023Z,10.55
2019-05-12T06:30:58.306Z,7.78
2019-05-12T06:33:31.897Z,10.65
2019-05-12T06:35:55.881Z,11.95
2019-05-12T06:38:23.785Z,14.40
2019-05-12T06:40:54.351Z,7.72
2019-05-12T06:43:21.330Z,9.35
2019-05-12T06:45:49.185Z,8.55
2019-05-12T06:48:19.518Z,7.70
2019-05-12T06:50:46.711Z,9.98
2019-05-12T06:53:14.713Z,8.28
2019-05-12T06:55:43.280Z,8.63
2019-05-12T06:58:13.769Z,7.53
2019-05-12T07:00:43.570Z,7.62
2019-05-12T07:03:10.716Z,10.18
2019-05-12T07:05:42.091Z,8.80
2019-05-12T07:08:08.147Z,8.48
2019-05-12T07:10:43.094Z,9.75
2019-05-12T07:13:06.115Z,10.53
2019-05-12T07:15:40.133Z,8.05
2019-05-12T07:18:07.391Z,8.38
2019-05-12T07:20:38.769Z,9.43
2019-05-12T07:23:04.893Z,7.83
2019-05-12T07:25:36.321Z,7.03
2019-05-12T07:28:06.849Z,7.58
2019-05-12T07:30:34.961Z,8.38
2019-05-12T07:33:04.422Z,7.08
2019-05-12T07:35:33.804Z,11.03
2019-05-12T07:38:04.221Z,5.75
2019-05-12T07:40:34.726Z,5.42
2019-05-12T07:43:00.595Z,8.05
2019-05-12T07:45:28.615Z,6.12
2019-05-12T07:47:59.382Z,7.80
2019-05-12T07:50:27.327Z,7.12
2019-05-12T07:52:55.415Z,5.80
2019-05-12T07:55:23.686Z,6.85
2019-05-12T07:57:57.882Z,6.42
2019-05-12T08:00:22.895Z,9.23
2019-05-12T08:02:51.083Z,5.65
2019-05-12T08:05:21.234Z,10.38
2019-05-12T08:07:50.408Z,9.13
2019-05-12T08:10:19.969Z,6.72
2019-05-12T08:12:51.170Z,7.95
2019-05-12T08:15:17.478Z,7.85
2019-05-12T08:17:49.325Z,6.33
2019-05-12T08:20:14.945Z,8.20
2019-05-12T08:22:43.861Z,5.50
2019-05-12T08:25:13.492Z,8.30
2019-05-12T08:27:45.231Z,6.83
2019-05-12T08:30:13.622Z,7.10
2019-05-12T08:32:40.929Z,8.38
2019-05-12T08:35:08.890Z,7.55
2019-05-12T08:37:36.961Z,5.42
2019-05-12T08:40:07.608Z,7.17
2019-05-12T08:42:34.583Z,7.55
2019-05-12T08:45:04.527Z,8.65
2019-05-12T08:47:35.543Z,7.50
2019-05-12T08:50:04.608Z,7.97
2019-05-12T08:52:37.373Z,6.37
2019-05-12T08:55:01.000Z,7.33
2019-05-12T08:57:34.948Z,9.58
2019-05-12T09:00:03.018Z,10.50
2019-05-12T09:02:28.170Z,4.10
2019-05-12T09:04:56.110Z,4.47
2019-05-12T09:07:24.314Z,6.47
2019-05-12T09:09:53.415Z,7.25
2019-05-12T09:12:23.283Z,6.85
2019-05-12T09:14:51.123Z,8.48
2019-05-12T09:17:19.038Z,6.50
2019-05-12T09:19:46.901Z,5.70
2019-05-12T09:22:18.555Z,9.90
2019-05-12T09:24:44.543Z,6.53
2019-05-12T09:27:13.578Z,7.65
2019-05-12T09:29:43.584Z,6.08
2019-05-12T09:32:11.295Z,5.78
2019-05-12T09:34:43.979Z,6.08
2019-05-12T09:37:10.876Z,7.70
2019-05-12T09:39:42.472Z,8.00
2019-05-12T09:42:08.401Z,6.83
2019-05-12T09:44:36.360Z,6.83
2019-05-12T09:47:07.627Z,5.67
2019-05-12T09:49:39.544Z,5.15
2019-05-12T09:52:06.673Z,4.75
2019-05-12T09:54:40.659Z,3.85
2019-05-12T09:57:04.435Z,8.08
2019-05-12T09:59:33.635Z,4.92
2019-05-12T10:02:03.707Z,5.35
2019-05-12T10:04:33.083Z,6.45
2019-05-12T10:07:01.038Z,3.85
2019-05-12T10:09:28.909Z,7.87
2019-05-12T10:12:00.599Z,5.22
2019-05-12T10:14:26.459Z,7.55
2019-05-12T10:16:54.391Z,6.25
2019-05-12T10:19:23.572Z,8.03
2019-05-12T10:21:55.225Z,5.10
2019-05-12T10:24:21.201Z,5.25
2019-05-12T10:26:50.598Z,4.25
2019-05-12T10:29:37.630Z,4.00
2019-05-12T10:32:05.696Z,3.52
2019-05-12T10:34:35.804Z,7.35
2019-05-12T10:37:04.120Z,5.50
2019-05-12T10:39:33.470Z,5.50
2019-05-12T10:42:01.683Z,7.95
2019-05-12T10:44:35.540Z,5.05
2019-05-12T10:47:00.858Z,6.85
2019-05-12T10:49:28.868Z,7.50
2019-05-12T10:51:56.893Z,5.45
2019-05-12T10:54:24.865Z,4.50
2019-05-12T10:56:54.520Z,3.35
2019-05-12T10:59:32.399Z,4.75
2019-05-12T11:01:53.952Z,5.85
2019-05-12T11:04:23.459Z,4.67
2019-05-12T11:06:53.322Z,7.15
2019-05-12T11:09:26.153Z,5.58
2019-05-12T11:11:54.008Z,4.75
2019-05-12T11:14:26.403Z,6.70
2019-05-12T11:16:54.257Z,6.40
2019-05-12T11:19:22.166Z,6.03
2019-05-12T11:21:57.573Z,3.25
2019-05-12T11:24:27.478Z,8.28
2019-05-12T11:26:55.502Z,4.03
2019-05-12T11:29:23.737Z,5.58
2019-05-12T11:31:53.856Z,5.53
2019-05-12T11:34:24.396Z,4.47
2019-05-12T11:36:54.838Z,3.58
2019-05-12T11:39:23.618Z,8.43
2019-05-12T11:41:53.668Z,3.42
2019-05-12T11:44:23.266Z,4.40
2019-05-12T11:46:51.410Z,3.45
2019-05-12T11:49:21.603Z,5.33
2019-05-12T11:51:50.804Z,3.02
2019-05-12T11:54:18.876Z,6.53
2019-05-12T11:56:53.554Z,3.92
2019-05-12T11:59:23.632Z,4.03
2019-05-12T12:01:56.148Z,4.55
2019-05-12T12:04:26.992Z,4.35
2019-05-12T12:06:54.999Z,4.47
2019-05-12T12:09:23.021Z,6.05
2019-05-12T12:11:54.645Z,5.22
2019-05-12T12:14:20.776Z,5.60
2019-05-12T12:16:50.637Z,5.78
2019-05-12T12:19:18.356Z,4.75
2019-05-12T12:21:50.052Z,3.20
2019-05-12T12:24:16.021Z,6.60
2019-05-12T12:26:44.691Z,4.58
2019-05-12T12:29:13.633Z,10.90
2019-05-12T12:31:49.661Z,4.85
2019-05-12T12:34:23.827Z,4.28
2019-05-12T12:36:47.249Z,4.22
2019-05-12T12:39:15.278Z,7.55
2019-05-12T12:41:55.323Z,4.40
2019-05-12T12:44:13.943Z,3.72
2019-05-12T12:46:43.947Z,2.67
2019-05-12T12:49:13.758Z,4.33
2019-05-12T12:51:43.579Z,4.83
2019-05-12T12:54:11.645Z,3.77
2019-05-12T12:56:39.610Z,3.52
2019-05-12T12:59:12.639Z,3.15
2019-05-12T13:01:37.244Z,3.42
2019-05-12T13:04:06.467Z,4.08
2019-05-12T13:06:34.735Z,3.35
2019-05-12T13:09:08.030Z,3.62
2019-05-12T13:11:34.922Z,4.22
2019-05-12T13:14:04.082Z,2.77
2019-05-12T13:16:34.206Z,3.22
2019-05-12T13:19:03.917Z,3.87
2019-05-12T13:21:33.447Z,3.33
2019-05-12T13:24:03.405Z,4.55
2019-05-12T13:26:30.641Z,3.60
2019-05-12T13:28:58.510Z,2.50
2019-05-12T13:31:26.431Z,3.83
2019-05-12T13:33:55.206Z,3.27
2019-05-12T13:36:24.260Z,2.05
2019-05-12T13:38:52.493Z,4.65
2019-05-12T13:41:20.371Z,2.62
2019-05-12T13:43:54.775Z,4.20
2019-05-12T13:46:17.939Z,5.20
2019-05-12T13:48:49.875Z,3.05
2019-05-12T13:51:15.863Z,4.05
2019-05-12T13:53:48.637Z,5.92
2019-05-12T13:56:13.771Z,3.55
2019-05-12T13:58:43.640Z,3.00
2019-05-12T14:01:17.017Z,3.30
2019-05-12T14:03:48.681Z,4.00
2019-05-12T14:06:10.837Z,3.85
2019-05-12T14:08:38.880Z,2.17
2019-05-12T14:11:06.819Z,3.40
2019-05-12T14:13:34.834Z,3.02
2019-05-12T14:16:06.320Z,5.37
2019-05-12T14:18:33.071Z,4.55
2019-05-12T14:21:04.176Z,2.87
2019-05-12T14:23:34.178Z,3.37
2019-05-12T14:26:02.253Z,3.08
2019-05-12T14:28:33.542Z,5.67
2019-05-12T14:31:04.107Z,3.25
2019-05-12T14:33:35.768Z,3.58
2019-05-12T14:36:03.927Z,3.42
2019-05-12T14:38:33.821Z,3.52
2019-05-12T14:41:10.107Z,5.12
2019-05-12T14:43:33.903Z,4.45
2019-05-12T14:46:06.137Z,2.65
2019-05-12T14:48:31.014Z,3.12
2019-05-12T14:50:59.905Z,3.10
2019-05-12T14:53:27.889Z,4.47
2019-05-12T14:55:56.024Z,3.17
2019-05-12T14:58:24.070Z,4.55
2019-05-12T15:00:56.369Z,3.27
2019-05-12T15:03:24.202Z,1.95
2019-05-12T15:05:54.390Z,2.55
2019-05-12T15:08:35.237Z,2.42
2019-05-12T15:10:54.078Z,2.05
2019-05-12T15:13:23.797Z,2.55
2019-05-12T15:15:58.132Z,3.20
2019-05-12T15:18:20.850Z,5.83
2019-05-12T15:20:51.440Z,6.08
2019-05-12T15:23:23.860Z,4.20
2019-05-12T15:25:50.889Z,4.12
2019-05-12T15:28:17.806Z,2.87
2019-05-12T15:30:45.881Z,3.72
2019-05-12T15:33:14.063Z,3.42
2019-05-12T15:35:43.900Z,2.20
2019-05-12T15:38:14.778Z,2.80
2019-05-12T15:40:43.350Z,5.15
2019-05-12T15:43:11.195Z,10.82
2019-05-12T15:45:39.528Z,5.65
2019-05-12T15:48:07.422Z,3.65
2019-05-12T15:50:35.406Z,3.05
2019-05-12T15:53:03.886Z,4.15
2019-05-12T15:55:34.831Z,4.37
2019-05-12T15:58:05.756Z,3.35
2019-05-12T16:00:34.300Z,2.12
2019-05-12T16:03:02.015Z,2.45
2019-05-12T16:05:31.239Z,1.82
2019-05-12T16:07:59.298Z,2.37
2019-05-12T16:10:27.215Z,1.80
2019-05-12T16:12:55.248Z,2.58
2019-05-12T16:15:23.094Z,4.08
2019-05-12T16:17:51.035Z,1.75
2019-05-12T16:20:18.950Z,4.37
2019-05-12T16:22:46.884Z,2.72
2019-05-12T16:25:15.548Z,3.55
2019-05-12T16:27:44.455Z,3.58
2019-05-12T16:30:14.102Z,3.05
2019-05-12T16:32:46.988Z,1.17
2019-05-12T16:35:14.109Z,1.85
2019-05-12T16:37:43.981Z,2.77
2019-05-12T16:40:14.347Z,4.80
2019-05-12T16:42:52.683Z,3.92
2019-05-12T16:45:14.925Z,2.60
2019-05-12T16:47:44.798Z,1.85
2019-05-12T16:50:24.058Z,2.72
2019-05-12T16:52:45.028Z,2.42
2019-05-12T16:55:12.068Z,2.67
2019-05-12T16:57:47.545Z,2.75
2019-05-12T17:00:16.699Z,2.67
2019-05-12T17:02:52.907Z,2.52
2019-05-12T17:05:19.963Z,2.20
2019-05-12T17:07:50.431Z,1.70
2019-05-12T17:10:17.136Z,2.12
2019-05-12T17:12:48.264Z,1.72
2019-05-12T17:15:15.246Z,3.77
2019-05-12T17:17:44.706Z,2.83
2019-05-12T17:20:13.810Z,4.45
2019-05-12T17:22:45.713Z,1.75
2019-05-12T17:25:14.768Z,4.53
2019-05-12T17:27:45.966Z,5.37
2019-05-12T17:30:15.475Z,5.05
2019-05-12T17:32:57.080Z,4.33
2019-05-12T17:35:25.705Z,2.05
2019-05-12T17:37:53.543Z,4.83
2019-05-12T17:40:24.286Z,3.75
2019-05-12T17:42:59.383Z,6.10
2019-05-12T17:45:23.617Z,4.45
2019-05-12T17:48:14.268Z,3.08
2019-05-12T17:50:46.647Z,10.95
2019-05-12T17:53:14.105Z,9.20
2019-05-12T17:55:50.603Z,6.05
2019-05-12T17:58:16.056Z,5.53
2019-05-12T18:00:47.558Z,6.03
2019-05-12T18:03:20.838Z,5.22
2019-05-12T18:05:48.234Z,3.72
2019-05-12T18:08:16.555Z,9.28
2019-05-12T18:10:47.714Z,8.08
2019-05-12T18:13:23.208Z,5.60
2019-05-12T18:15:46.684Z,2.75
2019-05-12T18:18:22.921Z,2.27
2019-05-12T18:20:49.846Z,3.45
2019-05-12T18:23:19.915Z,3.37
2019-05-12T18:25:47.478Z,2.95
2019-05-12T18:28:15.354Z,2.90
2019-05-12T18:30:43.318Z,2.22
2019-05-12T18:33:13.585Z,2.45
2019-05-12T18:35:41.039Z,3.42
2019-05-12T18:38:19.917Z,3.55
2019-05-12T18:40:41.590Z,2.72
2019-05-12T18:43:09.647Z,3.00
2019-05-12T18:45:37.630Z,1.82
2019-05-12T18:48:08.335Z,3.72
2019-05-12T18:50:35.454Z,2.83
2019-05-12T18:53:07.604Z,3.05
2019-05-12T18:55:40.119Z,2.62
2019-05-12T18:58:05.408Z,2.60
2019-05-12T19:00:33.991Z,4.42
2019-05-12T19:03:08.043Z,3.27
2019-05-12T19:05:31.766Z,3.55
2019-05-12T19:08:00.915Z,1.50
2019-05-12T19:10:38.603Z,3.12
2019-05-12T19:13:06.455Z,1.37
2019-05-12T19:15:35.917Z,2.58
2019-05-12T19:18:03.984Z,3.70
2019-05-12T19:20:36.115Z,2.62
2019-05-12T19:23:03.565Z,2.77
2019-05-12T19:25:35.938Z,3.58
2019-05-12T19:28:10.076Z,2.70
2019-05-12T19:30:37.104Z,5.12
2019-05-12T19:33:10.755Z,3.90
2019-05-12T19:35:38.057Z,2.60
2019-05-12T19:38:06.202Z,2.30
2019-05-12T19:40:34.289Z,3.37
2019-05-12T19:43:08.059Z,3.72
2019-05-12T19:45:33.819Z,2.75
2019-05-12T19:48:03.902Z,2.80
2019-05-12T19:50:31.425Z,2.50
2019-05-12T19:52:59.461Z,3.05
2019-05-12T19:55:27.427Z,2.62
2019-05-12T19:57:55.337Z,2.92
2019-05-12T20:00:23.255Z,2.62
2019-05-12T20:02:51.162Z,2.52
2019-05-12T20:05:19.075Z,3.62
2019-05-12T20:07:48.402Z,3.70
2019-05-12T20:10:16.765Z,4.83
2019-05-12T20:12:48.824Z,9.80
2019-05-12T20:15:15.335Z,11.75
2019-05-12T20:17:44.686Z,11.30
2019-05-12T20:20:13.717Z,19.82
2019-05-12T20:22:44.006Z,16.20
2019-05-12T20:25:11.525Z,13.55
2019-05-12T20:27:39.380Z,10.63
2019-05-12T20:30:17.266Z,11.08
2019-05-12T20:32:37.297Z,8.25
2019-05-12T20:35:05.183Z,5.28
2019-05-12T20:37:33.696Z,6.55
2019-05-12T20:40:05.156Z,3.22
2019-05-12T20:42:41.903Z,3.37
2019-05-12T20:45:05.199Z,4.50
2019-05-12T20:47:33.821Z,3.33
2019-05-12T20:50:04.281Z,5.78
2019-05-12T20:52:31.589Z,2.00
2019-05-12T20:54:59.974Z,2.42
2019-05-12T20:57:27.999Z,2.85
2019-05-12T20:59:58.141Z,3.08
2019-05-12T21:02:25.539Z,3.65
2019-05-12T21:05:00.890Z,3.08
2019-05-12T21:07:26.851Z,2.95
2019-05-12T21:09:52.787Z,6.55
2019-05-12T21:12:20.664Z,3.50
2019-05-12T21:14:51.851Z,2.90
2019-05-12T21:17:19.981Z,4.42
2019-05-12T21:19:56.953Z,3.02
2019-05-12T21:22:17.608Z,2.77
2019-05-12T21:24:45.436Z,2.35
2019-05-12T21:27:15.836Z,3.47
2019-05-12T21:29:43.680Z,2.83
2019-05-12T21:32:16.274Z,3.83
2019-05-12T21:34:43.628Z,3.17
2019-05-12T21:37:13.764Z,2.72
2019-05-12T21:39:49.178Z,2.70
2019-05-12T21:42:11.012Z,3.45
2019-05-12T21:44:41.426Z,4.20
2019-05-12T21:47:10.624Z,2.60
2019-05-12T21:49:42.613Z,5.15
2019-05-12T21:52:13.637Z,3.62
2019-05-12T21:54:43.848Z,3.20
2019-05-12T21:57:11.647Z,3.30
2019-05-12T21:59:39.951Z,2.75
2019-05-12T22:02:07.880Z,3.25
2019-05-12T22:04:41.399Z,3.08
2019-05-12T22:07:06.985Z,6.42
2019-05-12T22:09:41.804Z,2.83
2019-05-12T22:12:04.779Z,3.30
2019-05-12T22:14:38.672Z,3.58
2019-05-12T22:17:03.909Z,7.85
2019-05-12T22:19:37.713Z,4.83
2019-05-12T22:22:01.459Z,4.62
2019-05-12T22:24:37.228Z,3.20
2019-05-12T22:27:01.783Z,3.12
2019-05-12T22:29:31.334Z,4.17
2019-05-12T22:31:58.387Z,5.45
2019-05-12T22:34:27.484Z,11.57
2019-05-12T22:36:59.138Z,6.03
2019-05-12T22:39:25.613Z,8.10
2019-05-12T22:41:53.595Z,5.22
2019-05-12T22:44:22.801Z,3.10
2019-05-12T22:46:51.224Z,3.12
2019-05-12T22:49:21.048Z,3.65
2019-05-12T22:51:54.614Z,3.72
2019-05-12T22:54:18.262Z,3.05
2019-05-12T22:56:49.658Z,3.60
2019-05-12T22:59:15.760Z,4.80
2019-05-12T23:01:46.324Z,4.87
2019-05-12T23:04:14.232Z,3.70
2019-05-12T23:06:46.025Z,3.40
2019-05-12T23:09:11.965Z,2.40
2019-05-12T23:11:39.929Z,4.12
2019-05-12T23:14:12.694Z,2.75
2019-05-12T23:16:37.567Z,3.25
2019-05-12T23:19:10.265Z,4.80
2019-05-12T23:21:35.020Z,4.83
2019-05-12T23:24:03.771Z,3.30
2019-05-12T23:26:33.268Z,6.42
2019-05-12T23:29:04.059Z,4.67
2019-05-12T23:31:31.286Z,3.92
2019-05-12T23:33:59.170Z,3.33
2019-05-12T23:36:35.571Z,3.10
2019-05-12T23:39:00.357Z,3.42
2019-05-12T23:41:26.391Z,3.12
2019-05-12T23:43:54.287Z,5.55
2019-05-12T23:46:23.573Z,3.37
2019-05-12T23:48:51.621Z,3.40
2019-05-12T23:51:19.482Z,4.90
2019-05-12T23:53:47.368Z,4.85
2019-05-12T23:56:15.299Z,4.47
2019-05-12T23:58:43.388Z,4.67
